Time;durP1;ratioP1;P1;durP2;ratioP2;P2;SDS_P1;SDS_P2;PMS_P1;PMS_P2;Temp;Humidity;BMP_temperature;BMP_pressure;BME280_temperature;BME280_humidity;BME280_pressure;Samples;Min_cycle;Max_cycle;Signal;HPM_P1;HPM_P2
2023/07/27 00:00:24;;;;;;;4.60;1.10;;;;;;;14.49;100.00;100656.13;5054036;28;20465;-71
2023/07/27 00:02:50;;;;;;;5.00;1.10;;;;;;;14.45;100.00;100657.88;5053894;28;20449;-71
2023/07/27 00:05:17;;;;;;;6.30;1.47;;;;;;;14.41;100.00;100656.13;5054066;28;20489;-71
2023/07/27 00:07:44;;;;;;;5.73;1.60;;;;;;;14.36;100.00;100657.91;5053811;28;20553;-70
2023/07/27 00:10:12;;;;;;;4.70;1.13;;;;;;;14.32;100.00;100647.97;5053643;28;20492;-70
2023/07/27 00:12:38;;;;;;;4.97;1.33;;;;;;;14.24;100.00;100652.31;5053847;28;20910;-71
2023/07/27 00:15:06;;;;;;;4.80;1.13;;;;;;;14.26;100.00;100658.25;5053874;28;20483;-69
2023/07/27 00:17:32;;;;;;;4.70;1.20;;;;;;;14.24;100.00;100648.78;5053997;28;20452;-68
2023/07/27 00:19:59;;;;;;;5.00;1.10;;;;;;;14.14;100.00;100653.44;5053546;28;20478;-68
2023/07/27 00:22:26;;;;;;;4.37;0.90;;;;;;;14.07;100.00;100658.56;5053605;28;20528;-69
2023/07/27 00:24:52;;;;;;;5.10;1.10;;;;;;;14.00;100.00;100652.03;5053797;28;20470;-72
2023/07/27 00:27:20;;;;;;;5.07;1.10;;;;;;;13.89;100.00;100646.91;5053590;28;20442;-71
2023/07/27 00:29:47;;;;;;;5.33;1.10;;;;;;;13.91;100.00;100645.81;5053222;28;20473;-71
2023/07/27 00:32:13;;;;;;;5.23;1.63;;;;;;;13.86;100.00;100647.56;5053802;28;20914;-71
2023/07/27 00:34:40;;;;;;;4.70;0.93;;;;;;;13.85;100.00;100651.38;5053513;28;20525;-72
2023/07/27 00:37:07;;;;;;;7.60;1.57;;;;;;;13.91;100.00;100643.06;5053777;28;20452;-72
2023/07/27 00:39:34;;;;;;;5.30;1.37;;;;;;;13.85;100.00;100643.22;5053396;28;20921;-72
2023/07/27 00:42:01;;;;;;;5.03;1.10;;;;;;;13.83;100.00;100633.78;5053503;28;20521;-72
2023/07/27 00:44:29;;;;;;;5.10;1.20;;;;;;;13.76;100.00;100639.69;5053448;28;20442;-72
2023/07/27 00:46:56;;;;;;;4.73;1.17;;;;;;;13.79;100.00;100641.78;5052958;28;20525;-72
2023/07/27 00:49:22;;;;;;;4.50;1.00;;;;;;;13.80;100.00;100648.03;5053347;28;20474;-71
2023/07/27 00:51:49;;;;;;;5.23;1.10;;;;;;;13.75;100.00;100645.47;5055641;28;20532;-72
2023/07/27 00:54:17;;;;;;;6.07;1.50;;;;;;;13.75;100.00;100650.91;5057241;28;20979;-71
2023/07/27 00:56:44;;;;;;;5.60;1.40;;;;;;;13.66;100.00;100639.22;5057384;28;20464;-71
2023/07/27 00:59:13;;;;;;;6.40;1.40;;;;;;;13.66;100.00;100637.31;5057352;28;20536;-71
2023/07/27 01:01:41;;;;;;;6.00;1.60;;;;;;;13.69;100.00;100635.88;5057468;28;20446;-71
2023/07/27 01:04:08;;;;;;;4.93;1.23;;;;;;;13.63;100.00;100632.50;5057304;28;20442;-72
2023/07/27 01:06:35;;;;;;;5.20;1.40;;;;;;;13.49;100.00;100642.75;5056722;28;20490;-72
2023/07/27 01:09:01;;;;;;;4.70;1.17;;;;;;;13.42;100.00;100631.53;5057616;28;20866;-72
2023/07/27 01:11:35;;;;;;;5.40;1.50;;;;;;;13.45;100.00;100626.25;5057236;28;20442;-72
2023/07/27 01:14:10;;;;;;;5.90;1.70;;;;;;;13.38;100.00;100620.50;5057267;28;20870;-72
2023/07/27 01:16:45;;;;;;;4.90;1.20;;;;;;;13.37;100.00;100622.41;5057381;28;20485;-72
2023/07/27 01:19:32;;;;;;;5.60;1.40;;;;;;;13.40;100.00;100612.81;5056719;28;20422;-72
2023/07/27 01:22:14;;;;;;;5.17;1.13;;;;;;;13.41;100.00;100613.59;5057036;28;20438;-72
2023/07/27 01:25:02;;;;;;;4.90;1.33;;;;;;;13.40;100.00;100609.28;5056984;28;20458;-72
2023/07/27 01:27:46;;;;;;;5.23;1.37;;;;;;;13.36;100.00;100612.63;5056941;28;20625;-72
2023/07/27 01:30:28;;;;;;;5.20;1.33;;;;;;;13.41;100.00;100613.59;5056943;28;20971;-72
2023/07/27 01:33:00;;;;;;;4.80;1.00;;;;;;;13.40;100.00;100607.34;5056883;28;20514;-72
2023/07/27 01:35:39;;;;;;;4.83;1.33;;;;;;;13.43;100.00;100609.44;5056744;28;20496;-70
2023/07/27 01:38:06;;;;;;;5.20;1.40;;;;;;;13.43;100.00;100600.50;5056459;28;20833;-72
2023/07/27 01:40:35;;;;;;;5.43;1.40;;;;;;;13.40;100.00;100603.84;5056608;28;20448;-72
2023/07/27 01:43:03;;;;;;;5.10;1.70;;;;;;;13.35;100.00;100605.59;5056601;28;20520;-72
2023/07/27 01:45:29;;;;;;;5.20;1.50;;;;;;;13.34;100.00;100604.00;5056112;28;20915;-72
2023/07/27 01:47:59;;;;;;;6.87;2.10;;;;;;;13.35;100.00;100599.34;5056328;28;20478;-72
2023/07/27 01:50:28;;;;;;;6.27;1.60;;;;;;;13.38;100.00;100598.72;5056776;28;20849;-72
2023/07/27 01:52:56;;;;;;;4.93;1.30;;;;;;;13.38;100.00;100604.19;5056172;28;20508;-72
2023/07/27 01:55:23;;;;;;;5.33;1.67;;;;;;;13.34;100.00;100612.16;5056462;28;20541;-72
2023/07/27 01:57:51;;;;;;;5.33;1.67;;;;;;;13.34;100.00;100598.56;5056638;28;20449;-72
2023/07/27 02:00:18;;;;;;;5.47;1.50;;;;;;;13.34;100.00;100590.41;5056643;28;20442;-72
2023/07/27 02:02:45;;;;;;;6.10;1.70;;;;;;;13.29;100.00;100595.19;5055868;28;20780;-72
2023/07/27 02:05:15;;;;;;;6.03;2.13;;;;;;;13.29;100.00;100603.38;5056024;28;20957;-72
2023/07/27 02:07:42;;;;;;;6.50;2.03;;;;;;;13.27;100.00;100592.00;5078838;22;20489;-75
2023/07/27 02:10:11;;;;;;;5.90;1.70;;;;;;;13.24;100.00;100601.59;5066037;28;20512;-75
2023/07/27 02:12:44;;;;;;;7.73;1.53;;;;;;;13.13;100.00;100609.22;5066411;28;20438;-75
2023/07/27 02:15:16;;;;;;;6.80;1.40;;;;;;;13.14;100.00;100616.25;5065601;28;20496;-75
2023/07/27 02:18:02;;;;;;;5.50;1.40;;;;;;;13.13;100.00;100609.22;5065165;28;20430;-75
2023/07/27 02:20:34;;;;;;;4.93;1.30;;;;;;;13.09;100.00;100610.97;5067396;28;20418;-75
2023/07/27 02:23:02;;;;;;;5.93;2.07;;;;;;;13.12;100.00;100604.09;5066974;28;20452;-75
2023/07/27 02:25:29;;;;;;;6.77;2.10;;;;;;;13.13;100.00;100601.06;5064933;28;20489;-75
2023/07/27 02:27:56;;;;;;;5.47;1.73;;;;;;;13.12;100.00;100602.19;5065914;28;20492;-75
2023/07/27 02:30:22;;;;;;;6.17;1.97;;;;;;;13.16;100.00;100596.13;5068507;28;20468;-75
2023/07/27 02:32:49;;;;;;;5.90;1.90;;;;;;;13.15;100.00;100598.03;5068388;28;20443;-75
2023/07/27 02:35:16;;;;;;;5.57;1.47;;;;;;;13.15;100.00;100598.03;5068514;28;20513;-75
2023/07/27 02:37:44;;;;;;;5.30;1.50;;;;;;;13.12;100.00;100595.94;5067592;28;20446;-75
2023/07/27 02:40:11;;;;;;;7.13;2.10;;;;;;;13.15;100.00;100595.31;5068011;28;20949;-75
2023/07/27 02:42:37;;;;;;;4.80;1.13;;;;;;;13.18;100.00;100593.88;5067673;28;20459;-75
2023/07/27 02:45:05;;;;;;;6.40;1.83;;;;;;;13.15;100.00;100589.88;5068993;28;20506;-75
2023/07/27 02:47:31;;;;;;;5.90;1.90;;;;;;;13.18;100.00;100591.16;5069219;28;20482;-74
2023/07/27 02:49:58;;;;;;;6.27;1.80;;;;;;;13.12;100.00;100591.31;5070016;28;20439;-74
2023/07/27 02:52:24;;;;;;;5.63;1.60;;;;;;;13.09;100.00;100591.94;5065738;28;20438;-72
2023/07/27 02:54:53;;;;;;;6.87;2.37;;;;;;;12.94;100.00;100584.25;5068797;28;20549;-75
2023/07/27 02:57:19;;;;;;;6.03;1.80;;;;;;;12.86;100.00;100588.53;5068996;28;20449;-75
2023/07/27 02:59:46;;;;;;;7.73;2.27;;;;;;;12.75;100.00;100589.97;5049870;28;20498;-75
2023/07/27 03:02:13;;;;;;;5.00;1.47;;;;;;;12.80;100.00;100597.97;5067686;28;20435;-75
2023/07/27 03:04:39;;;;;;;5.70;1.50;;;;;;;12.83;100.00;100589.16;5067656;28;20949;-75
2023/07/27 03:07:06;;;;;;;6.00;1.90;;;;;;;12.88;100.00;100589.03;5067590;28;20478;-75
2023/07/27 03:09:33;;;;;;;5.37;1.43;;;;;;;12.85;100.00;100597.81;5068296;28;20529;-75
2023/07/27 03:12:01;;;;;;;5.83;2.07;;;;;;;12.79;100.00;100596.38;5068050;28;20468;-75
2023/07/27 03:14:28;;;;;;;6.77;2.63;;;;;;;12.72;100.00;100597.94;5067018;28;20446;-75
2023/07/27 03:16:55;;;;;;;5.07;1.50;;;;;;;12.78;100.00;100592.03;5066885;28;20874;-75
2023/07/27 03:19:21;;;;;;;6.00;1.90;;;;;;;12.74;100.00;100585.63;5067157;28;20445;-75
2023/07/27 03:21:48;;;;;;;5.57;1.77;;;;;;;12.73;100.00;100584.00;5067258;28;20921;-75
2023/07/27 03:24:16;;;;;;;6.13;2.17;;;;;;;12.80;100.00;100594.44;5067088;28;20506;-75
2023/07/27 03:26:43;;;;;;;5.67;1.90;;;;;;;12.73;100.00;100580.50;5066714;28;20528;-75
2023/07/27 03:29:11;;;;;;;6.77;2.13;;;;;;;12.71;100.00;100594.41;5068209;28;20447;-75
2023/07/27 03:31:38;;;;;;;5.83;2.13;;;;;;;12.73;100.00;100588.66;5067401;28;20450;-75
2023/07/27 03:34:05;;;;;;;7.33;1.83;;;;;;;12.74;100.00;100596.47;5068052;28;20529;-74
2023/07/27 03:36:32;;;;;;;6.13;2.07;;;;;;;12.79;100.00;100596.38;5067722;28;20462;-74
2023/07/27 03:38:58;;;;;;;6.00;2.00;;;;;;;12.80;100.00;100589.81;5067508;28;20450;-75
2023/07/27 03:41:25;;;;;;;6.10;2.07;;;;;;;12.81;100.00;100580.53;5068383;28;20435;-74
2023/07/27 03:43:52;;;;;;;6.53;1.83;;;;;;;12.84;100.00;100584.53;5061440;28;20501;-74
2023/07/27 03:46:20;;;;;;;6.17;1.97;;;;;;;12.84;100.00;100584.53;5062704;28;20501;-75
2023/07/27 03:48:48;;;;;;;5.80;2.13;;;;;;;12.78;100.00;100585.78;5063213;28;20929;-74
2023/07/27 03:51:15;;;;;;;6.47;2.20;;;;;;;12.81;100.00;100575.09;5064096;28;20442;-74
2023/07/27 03:53:41;;;;;;;5.63;1.87;;;;;;;12.86;100.00;100585.00;5064789;28;20484;-74
2023/07/27 03:56:08;;;;;;;7.70;2.10;;;;;;;12.76;100.00;100567.09;5064923;28;20464;-74
2023/07/27 03:58:35;;;;;;;5.50;1.50;;;;;;;12.80;100.00;100559.91;5065499;28;20438;-75
2023/07/27 04:01:02;;;;;;;6.90;2.33;;;;;;;12.74;100.00;100560.34;5065990;28;20442;-74
2023/07/27 04:03:30;;;;;;;6.37;2.23;;;;;;;12.80;100.00;100562.63;5065483;28;20438;-74
2023/07/27 04:05:56;;;;;;;6.83;1.97;;;;;;;12.75;100.00;100561.94;5066276;28;20506;-75
2023/07/27 04:08:23;;;;;;;5.83;2.10;;;;;;;12.82;100.00;100570.44;5067046;28;20459;-74
2023/07/27 04:10:50;;;;;;;7.90;2.60;;;;;;;12.88;100.00;100561.03;5067007;28;20477;-74
2023/07/27 04:13:16;;;;;;;6.37;2.27;;;;;;;12.97;100.00;100571.91;5066901;28;20541;-74
2023/07/27 04:15:43;;;;;;;6.57;2.50;;;;;;;13.00;100.00;100561.22;5067075;28;20477;-74
2023/07/27 04:18:10;;;;;;;6.60;2.07;;;;;;;13.13;100.00;100557.53;5067927;28;20438;-74
2023/07/27 04:20:38;;;;;;;6.80;2.43;;;;;;;13.10;100.00;100565.53;5067191;28;20458;-74
2023/07/27 04:23:04;;;;;;;6.17;2.13;;;;;;;13.14;100.00;100556.41;5067035;28;20446;-74
2023/07/27 04:25:31;;;;;;;5.70;1.77;;;;;;;13.21;100.00;100553.25;5065857;28;20505;-74
2023/07/27 04:27:58;;;;;;;5.90;1.90;;;;;;;13.26;100.00;100552.31;5066813;28;20486;-74
2023/07/27 04:30:24;;;;;;;7.23;2.23;;;;;;;13.27;100.00;100553.91;5066422;28;20470;-74
2023/07/27 04:32:51;;;;;;;5.83;1.73;;;;;;;13.32;100.00;100556.47;5067610;28;20510;-74
2023/07/27 04:35:18;;;;;;;6.20;2.07;;;;;;;13.34;100.00;100557.75;5066876;28;20504;-74
2023/07/27 04:37:46;;;;;;;9.10;2.77;;;;;;;13.43;100.00;100557.75;5066658;28;20633;-75
2023/07/27 04:40:13;;;;;;;8.07;2.57;;;;;;;13.53;100.00;100560.13;5066692;28;20474;-75
2023/07/27 04:42:40;;;;;;;8.93;1.97;;;;;;;13.62;100.00;100550.03;5066266;28;20478;-75
2023/07/27 04:45:08;;;;;;;5.53;1.60;;;;;;;13.66;100.00;100546.69;5067753;28;20465;-74
2023/07/27 04:47:35;;;;;;;6.80;2.53;;;;;;;13.75;100.00;100559.16;5066037;28;20538;-74
2023/07/27 04:50:02;;;;;;;6.97;1.90;;;;;;;13.84;100.00;100565.38;5066119;28;20455;-75
2023/07/27 04:52:29;;;;;;;6.63;2.13;;;;;;;13.93;100.00;100553.69;5066873;28;20834;-74
2023/07/27 04:54:57;;;;;;;7.13;2.37;;;;;;;13.98;100.00;100548.84;5066995;28;20458;-74
2023/07/27 04:57:23;;;;;;;6.17;2.10;;;;;;;14.07;100.00;100548.81;5067829;28;20553;-75
2023/07/27 04:59:50;;;;;;;7.30;1.70;;;;;;;14.14;100.00;100547.22;5067203;28;20517;-74
2023/07/27 05:02:17;;;;;;;7.23;2.13;;;;;;;14.23;100.00;100549.91;5066420;28;20488;-74
2023/07/27 05:04:44;;;;;;;5.70;1.80;;;;;;;14.30;100.00;100552.13;5065122;28;20503;-74
2023/07/27 05:07:10;;;;;;;6.07;2.10;;;;;;;14.36;100.00;100546.16;5067026;28;20486;-74
2023/07/27 05:09:37;;;;;;;5.80;1.63;;;;;;;14.46;100.00;100546.91;5067506;28;20481;-72
2023/07/27 05:12:06;;;;;;;6.20;1.83;;;;;;;14.54;100.00;100551.56;5067417;28;20431;-72
2023/07/27 05:14:33;;;;;;;8.07;2.00;;;;;;;14.59;100.00;100549.44;5062101;28;20937;-73
2023/07/27 05:16:59;;;;;;;5.90;2.10;;;;;;;14.63;100.00;100555.84;5059052;28;20496;-71
2023/07/27 05:19:26;;;;;;;6.50;1.90;;;;;;;14.68;100.00;100557.59;5060177;28;20458;-73
2023/07/27 05:21:53;;;;;;;5.30;1.30;;;;;;;14.73;100.00;100560.13;5065491;28;20451;-73
2023/07/27 05:24:19;;;;;;;8.70;2.03;;;;;;;14.80;99.69;100563.13;5061234;28;20601;-75
2023/07/27 05:26:46;;;;;;;11.70;1.90;;;;;;;14.88;99.31;100554.09;5053573;28;20497;-75
2023/07/27 05:29:14;;;;;;;6.10;2.00;;;;;;;14.95;98.74;100553.56;5053080;28;20448;-75
2023/07/27 05:31:41;;;;;;;12.53;1.80;;;;;;;15.02;99.95;100551.13;5052863;28;20438;-75
2023/07/27 05:34:08;;;;;;;7.70;2.13;;;;;;;15.10;99.62;100546.75;5053069;28;20450;-75
2023/07/27 05:36:35;;;;;;;6.33;1.90;;;;;;;15.19;99.48;100544.75;5052867;28;20458;-74
2023/07/27 05:39:01;;;;;;;5.80;1.80;;;;;;;15.31;97.76;100535.81;5056599;28;20446;-75
2023/07/27 05:41:29;;;;;;;6.90;1.80;;;;;;;15.41;95.84;100534.63;5056722;28;20438;-75
2023/07/27 05:43:55;;;;;;;6.17;2.13;;;;;;;15.53;95.13;100542.84;5056611;28;20449;-75
2023/07/27 05:46:24;;;;;;;5.00;1.40;;;;;;;15.59;96.50;100542.31;5056918;28;20548;-75
2023/07/27 05:48:51;;;;;;;6.10;1.53;;;;;;;15.67;97.05;100545.31;5056092;28;20997;-74
2023/07/27 05:51:17;;;;;;;5.33;1.40;;;;;;;15.83;96.53;100538.09;5056585;28;20452;-74
2023/07/27 05:53:44;;;;;;;5.40;1.70;;;;;;;16.00;95.90;100539.84;5056510;28;20533;-74
2023/07/27 05:56:11;;;;;;;7.13;1.60;;;;;;;16.12;93.52;100542.59;5056321;28;20476;-73
2023/07/27 05:58:38;;;;;;;10.57;1.73;;;;;;;16.24;93.54;100539.84;5056659;28;20541;-73
2023/07/27 06:01:05;;;;;;;7.23;1.73;;;;;;;16.38;93.56;100540.34;5056260;28;20442;-75
2023/07/27 06:03:33;;;;;;;6.60;1.93;;;;;;;16.47;93.55;100534.78;5056363;28;20460;-68
2023/07/27 06:05:59;;;;;;;5.10;1.37;;;;;;;16.50;89.73;100534.06;5056373;28;20497;-72
2023/07/27 06:08:26;;;;;;;5.33;1.70;;;;;;;16.58;88.19;100532.34;5055708;28;20566;-72
2023/07/27 06:11:01;;;;;;;4.90;1.30;;;;;;;16.58;87.25;100529.63;5056077;28;20527;-72
2023/07/27 06:13:29;;;;;;;4.67;0.90;;;;;;;16.62;86.81;100523.13;5055949;28;20461;-73
2023/07/27 06:15:56;;;;;;;9.20;2.10;;;;;;;16.61;86.89;100523.47;5056010;28;20470;-72
2023/07/27 06:18:22;;;;;;;5.50;1.70;;;;;;;16.61;87.49;100520.75;5055697;28;20478;-72
2023/07/27 06:20:50;;;;;;;9.17;2.03;;;;;;;16.61;85.13;100516.06;5055883;28;20442;-70
2023/07/27 06:23:17;;;;;;;5.73;1.90;;;;;;;16.63;84.65;100524.72;5056143;28;20474;-70
2023/07/27 06:25:45;;;;;;;7.20;1.90;;;;;;;16.71;86.16;100523.00;5055797;28;20545;-70
2023/07/27 06:28:12;;;;;;;5.30;1.60;;;;;;;16.79;85.50;100524.84;5055793;28;20660;-71
2023/07/27 06:30:40;;;;;;;5.17;1.70;;;;;;;16.89;85.04;100523.59;5055873;28;20465;-71
2023/07/27 06:33:07;;;;;;;8.27;1.70;;;;;;;16.95;83.57;100533.13;5056140;28;20529;-72
2023/07/27 06:35:33;;;;;;;5.80;1.60;;;;;;;16.95;84.63;100529.59;5055658;28;20524;-71
2023/07/27 06:38:01;;;;;;;5.23;1.63;;;;;;;17.00;83.17;100532.91;5055649;28;20438;-68
2023/07/27 06:40:28;;;;;;;5.77;1.67;;;;;;;17.06;83.06;100531.53;5056526;28;20541;-71
2023/07/27 06:42:55;;;;;;;6.80;1.60;;;;;;;17.14;81.58;100533.34;5056254;28;20537;-71
2023/07/27 06:45:22;;;;;;;5.27;1.50;;;;;;;17.21;83.48;100524.50;5056275;28;20494;-69
2023/07/27 06:47:48;;;;;;;5.83;1.63;;;;;;;17.29;81.55;100528.25;5056948;28;20496;-70
2023/07/27 06:50:15;;;;;;;6.37;2.00;;;;;;;17.36;80.54;100528.47;5056506;28;20881;-69
2023/07/27 06:52:42;;;;;;;5.60;1.70;;;;;;;17.37;80.09;100533.59;5057194;28;20529;-69
2023/07/27 06:55:11;;;;;;;5.40;1.90;;;;;;;17.43;79.85;100533.34;5056916;28;20462;-69
2023/07/27 06:57:37;;;;;;;5.93;1.70;;;;;;;17.39;79.96;100520.34;5056669;28;20445;-69
2023/07/27 07:00:06;;;;;;;4.90;1.30;;;;;;;17.47;82.33;100531.50;5056200;28;20964;-68
2023/07/27 07:02:32;;;;;;;6.20;1.93;;;;;;;17.53;81.27;100530.09;5057067;28;20480;-69
2023/07/27 07:04:59;;;;;;;8.53;1.40;;;;;;;17.57;80.51;100526.31;5056951;28;20545;-69
2023/07/27 07:07:26;;;;;;;5.67;1.70;;;;;;;17.64;79.19;100525.72;5056727;28;20927;-69
2023/07/27 07:09:53;;;;;;;5.80;1.73;;;;;;;17.70;80.31;100527.03;5056781;28;20443;-69
2023/07/27 07:12:21;;;;;;;5.20;1.40;;;;;;;17.89;78.35;100521.75;5056604;28;20946;-69
2023/07/27 07:14:48;;;;;;;6.93;2.10;;;;;;;18.08;77.19;100512.03;5055513;28;20909;-69
2023/07/27 07:17:15;;;;;;;6.10;2.07;;;;;;;18.21;78.58;100513.53;5056459;28;20525;-69
2023/07/27 07:19:42;;;;;;;6.00;1.70;;;;;;;18.38;76.33;100520.59;5056061;28;20477;-69
2023/07/27 07:22:09;;;;;;;5.73;1.87;;;;;;;18.50;78.06;100522.41;5055646;28;20442;-69
2023/07/27 07:24:35;;;;;;;6.07;1.90;;;;;;;18.64;78.00;100517.28;5055489;28;20521;-69
2023/07/27 07:27:02;;;;;;;6.67;2.23;;;;;;;18.77;77.01;100524.28;5055343;28;20480;-69
2023/07/27 07:29:30;;;;;;;5.70;1.40;;;;;;;18.81;75.07;100524.34;5055899;28;20441;-69
2023/07/27 07:31:57;;;;;;;5.37;1.50;;;;;;;18.76;73.43;100514.44;5055415;28;20478;-69
2023/07/27 07:34:24;;;;;;;6.10;2.20;;;;;;;18.73;74.20;100517.91;5056372;28;20499;-69
2023/07/27 07:36:51;;;;;;;6.57;1.60;;;;;;;18.71;74.85;100516.66;5055888;28;20442;-69
2023/07/27 07:39:18;;;;;;;7.33;1.60;;;;;;;18.75;75.18;100521.09;5056650;28;20452;-69
2023/07/27 07:41:44;;;;;;;5.80;1.33;;;;;;;18.77;75.01;100529.78;5055583;28;20453;-69
2023/07/27 07:44:11;;;;;;;5.73;1.20;;;;;;;18.84;74.94;100524.41;5054785;28;20973;-68
2023/07/27 07:46:40;;;;;;;5.40;1.67;;;;;;;18.86;76.44;100519.38;5054689;28;20549;-66
2023/07/27 07:49:07;;;;;;;6.80;1.87;;;;;;;18.95;77.70;100523.84;5053919;28;21080;-68
2023/07/27 07:51:33;;;;;;;5.40;1.33;;;;;;;18.98;75.38;100520.41;5054199;28;20517;-66
2023/07/27 07:54:00;;;;;;;6.03;1.37;;;;;;;19.14;74.63;100516.44;5054445;28;20452;-67
2023/07/27 07:56:27;;;;;;;5.90;1.77;;;;;;;19.25;75.59;100515.88;5054125;28;20462;-66
2023/07/27 07:58:53;;;;;;;7.20;1.50;;;;;;;19.32;75.28;100508.56;5054400;28;20460;-66
2023/07/27 08:01:20;;;;;;;5.13;1.60;;;;;;;19.34;73.72;100517.22;5054229;28;20533;-65
2023/07/27 08:03:48;;;;;;;7.90;1.70;;;;;;;19.32;72.48;100505.03;5054028;28;20450;-65
2023/07/27 08:06:43;;;;;;;4.83;1.33;;;;;;;19.29;73.21;100512.03;5065053;22;20495;-69
2023/07/27 08:09:10;;;;;;;4.40;0.97;;;;;;;19.26;72.10;100512.78;5034143;28;20482;-69
2023/07/27 08:11:36;;;;;;;6.40;1.87;;;;;;;19.20;71.50;100510.66;5033972;28;20486;-69
2023/07/27 08:14:03;;;;;;;7.50;1.63;;;;;;;19.10;72.61;100510.09;5034082;28;20526;-70
2023/07/27 08:16:30;;;;;;;6.13;1.50;;;;;;;19.11;73.84;100503.44;5033402;28;20521;-70
2023/07/27 08:18:58;;;;;;;6.07;1.67;;;;;;;19.05;74.92;100501.34;5033853;28;20522;-70
2023/07/27 08:21:25;;;;;;;5.43;1.70;;;;;;;19.08;73.77;100500.59;5033663;28;20490;-72
2023/07/27 08:23:52;;;;;;;5.37;1.63;;;;;;;19.03;73.73;100492.66;5034032;28;21049;-71
2023/07/27 08:26:18;;;;;;;5.73;1.53;;;;;;;19.01;75.57;100489.50;5033769;28;20473;-70
2023/07/27 08:28:45;;;;;;;5.57;1.30;;;;;;;18.97;74.72;100480.38;5033945;28;20569;-69
2023/07/27 08:31:12;;;;;;;8.20;1.90;;;;;;;18.95;75.31;100477.19;5033940;28;20450;-69
2023/07/27 08:33:39;;;;;;;4.90;1.50;;;;;;;19.02;76.42;100480.88;5034034;28;20482;-69
2023/07/27 08:36:07;;;;;;;5.60;1.40;;;;;;;19.06;73.90;100475.47;5033520;28;20471;-70
2023/07/27 08:38:34;;;;;;;6.17;2.00;;;;;;;19.21;75.27;100471.06;5033615;28;20471;-70
2023/07/27 08:41:01;;;;;;;6.40;1.83;;;;;;;19.31;73.56;100460.28;5033612;28;20479;-69
2023/07/27 08:43:29;;;;;;;5.97;2.07;;;;;;;19.41;73.41;100456.94;5033261;28;20443;-70
2023/07/27 08:45:56;;;;;;;6.07;1.97;;;;;;;19.54;74.55;100445.78;5034167;28;20552;-69
2023/07/27 08:48:24;;;;;;;6.20;1.93;;;;;;;19.68;72.15;100448.81;5033126;28;20493;-70
2023/07/27 08:50:52;;;;;;;6.13;1.63;;;;;;;19.79;73.95;100438.81;5033679;28;20841;-70
2023/07/27 08:53:21;;;;;;;6.37;1.97;;;;;;;19.89;71.25;100438.19;5033395;28;20526;-71
2023/07/27 08:55:47;;;;;;;5.63;1.70;;;;;;;19.93;72.47;100440.22;5033322;28;20459;-69
2023/07/27 08:58:15;;;;;;;5.40;1.57;;;;;;;19.97;73.14;100439.13;5033653;28;20471;-71
2023/07/27 09:00:41;;;;;;;5.63;1.40;;;;;;;19.90;71.73;100426.03;5033016;28;20920;-69
2023/07/27 09:03:08;;;;;;;5.00;1.30;;;;;;;19.94;73.97;100428.06;5033281;28;20522;-69
2023/07/27 09:05:39;;;;;;;5.10;1.40;;;;;;;19.94;71.04;100425.31;5033175;28;20547;-71
2023/07/27 09:08:07;;;;;;;6.03;1.97;;;;;;;19.83;71.87;100423.19;5033239;28;20573;-71
2023/07/27 09:10:36;;;;;;;8.50;1.70;;;;;;;19.95;70.38;100424.91;5032970;28;20446;-71
2023/07/27 09:13:03;;;;;;;5.03;1.47;;;;;;;20.03;73.21;100432.13;5034715;28;20642;-69
2023/07/27 09:15:30;;;;;;;5.07;1.50;;;;;;;20.19;72.70;100418.25;5037083;28;20471;-68
2023/07/27 09:17:58;;;;;;;5.97;1.90;;;;;;;20.30;70.88;100424.69;5036906;28;20443;-68
2023/07/27 09:20:25;;;;;;;5.67;1.70;;;;;;;20.24;69.83;100426.16;5037086;28;20449;-68
2023/07/27 09:22:52;;;;;;;5.60;2.30;;;;;;;20.28;68.67;100416.00;5037462;28;20447;-68
2023/07/27 09:25:22;;;;;;;5.10;1.40;;;;;;;20.30;68.17;100416.41;5037019;28;20454;-68
2023/07/27 09:27:53;;;;;;;5.67;1.60;;;;;;;20.31;70.50;100426.25;5037219;28;20439;-68
2023/07/27 09:30:21;;;;;;;5.43;1.37;;;;;;;20.25;69.20;100414.00;5037022;28;20423;-68
2023/07/27 09:32:48;;;;;;;10.23;2.17;;;;;;;20.26;70.25;100409.28;5037133;28;20447;-69
2023/07/27 09:35:16;;;;;;;6.03;1.60;;;;;;;20.19;69.92;100407.25;5037052;28;20470;-69
2023/07/27 09:37:44;;;;;;;4.90;1.40;;;;;;;20.12;69.80;100409.88;5036789;28;20450;-70
2023/07/27 09:40:13;;;;;;;5.50;1.40;;;;;;;20.11;70.23;100403.56;5036452;28;20447;-69
2023/07/27 09:42:41;;;;;;;6.60;1.50;;;;;;;20.10;71.35;100406.72;5036729;28;20465;-69
2023/07/27 09:45:11;;;;;;;5.40;1.70;;;;;;;19.94;69.61;100403.31;5036594;28;20545;-69
2023/07/27 09:47:38;;;;;;;7.00;2.03;;;;;;;19.64;71.15;100412.25;5036502;28;20447;-70
2023/07/27 09:50:06;;;;;;;5.30;1.50;;;;;;;19.50;75.06;100406.47;5036524;28;20482;-69
2023/07/27 09:52:36;;;;;;;6.20;1.50;;;;;;;19.20;83.05;100407.09;5036946;28;20467;-69
2023/07/27 09:55:03;;;;;;;5.20;1.40;;;;;;;18.83;82.38;100404.81;5036444;28;20546;-69
2023/07/27 09:57:30;;;;;;;5.60;1.70;;;;;;;18.53;85.51;100403.75;5036230;28;20529;-69
2023/07/27 09:59:57;;;;;;;4.93;1.60;;;;;;;18.40;86.85;100398.41;5036469;28;20439;-69
2023/07/27 10:02:24;;;;;;;5.47;1.77;;;;;;;18.31;86.39;100406.03;5036466;28;20447;-69
2023/07/27 10:04:51;;;;;;;5.47;1.47;;;;;;;18.26;87.59;100400.81;5036425;28;20549;-69
2023/07/27 10:07:19;;;;;;;5.97;2.13;;;;;;;18.19;86.50;100397.13;5036355;28;20463;-69
2023/07/27 10:09:46;;;;;;;5.70;1.87;;;;;;;18.17;90.83;100392.00;5036270;28;20490;-69
2023/07/27 10:12:27;;;;;;;4.93;1.20;;;;;;;18.24;91.83;100383.13;5036608;28;20474;-69
2023/07/27 10:15:21;;;;;;;7.60;1.80;;;;;;;18.40;88.88;100384.69;5036182;28;20470;-69
2023/07/27 10:17:52;;;;;;;5.53;1.40;;;;;;;18.60;88.56;100379.22;5035926;28;20856;-69
2023/07/27 10:20:25;;;;;;;7.23;1.80;;;;;;;18.78;88.17;100399.63;5036179;28;20503;-69
2023/07/27 10:22:52;;;;;;;5.13;1.43;;;;;;;18.94;86.42;100396.00;5035402;28;20523;-69
2023/07/27 10:25:19;;;;;;;5.27;1.87;;;;;;;19.06;84.50;100399.38;5035168;28;20462;-69
2023/07/27 10:27:55;;;;;;;5.37;1.43;;;;;;;19.18;84.63;100409.44;5036209;28;20501;-69
2023/07/27 10:30:22;;;;;;;5.50;1.60;;;;;;;19.20;82.25;100409.84;5036164;28;20467;-69
2023/07/27 10:33:16;;;;;;;7.10;2.40;;;;;;;19.28;82.37;100414.31;5035893;28;20951;-69
2023/07/27 10:36:02;;;;;;;5.23;1.63;;;;;;;19.34;81.88;100404.59;5036151;28;20470;-69
2023/07/27 10:38:28;;;;;;;5.10;1.50;;;;;;;19.29;84.23;100404.91;5035718;28;20445;-69
2023/07/27 10:40:55;;;;;;;6.53;1.57;;;;;;;19.30;82.04;100412.03;5035816;28;20443;-69
2023/07/27 10:43:22;;;;;;;5.40;1.83;;;;;;;19.37;79.34;100398.41;5035383;28;20966;-69
2023/07/27 10:45:54;;;;;;;6.33;1.70;;;;;;;19.50;81.38;100400.97;5035970;28;20537;-69
2023/07/27 10:48:22;;;;;;;5.63;1.53;;;;;;;19.58;81.60;100387.00;5035471;28;20518;-69
2023/07/27 10:50:49;;;;;;;6.13;1.73;;;;;;;19.72;78.29;100389.22;5035981;28;20443;-69
2023/07/27 10:53:16;;;;;;;5.40;2.10;;;;;;;19.82;79.02;100394.06;5035619;28;20530;-69
2023/07/27 10:55:43;;;;;;;5.53;1.57;;;;;;;19.93;76.73;100385.22;5035447;28;20485;-69
2023/07/27 10:58:11;;;;;;;5.60;1.43;;;;;;;20.14;77.10;100385.53;5035407;28;20475;-68
2023/07/27 11:00:38;;;;;;;5.30;1.33;;;;;;;20.23;73.95;100386.09;5035685;28;20989;-69
2023/07/27 11:03:05;;;;;;;5.47;1.53;;;;;;;20.45;75.85;100380.84;5034935;28;20439;-69
2023/07/27 11:05:33;;;;;;;5.07;1.53;;;;;;;20.46;75.28;100380.50;5035119;28;20467;-69
2023/07/27 11:08:02;;;;;;;5.00;1.33;;;;;;;20.45;74.47;100370.63;5034771;28;20467;-69
2023/07/27 11:10:30;;;;;;;6.23;1.70;;;;;;;20.52;76.34;100372.72;5035130;28;20565;-69
2023/07/27 11:12:57;;;;;;;5.10;1.60;;;;;;;20.59;75.68;100367.31;5034969;28;20454;-72
2023/07/27 11:15:26;;;;;;;5.37;1.30;;;;;;;20.62;74.78;100374.81;5034800;28;20455;-69
2023/07/27 11:17:55;;;;;;;6.60;2.20;;;;;;;20.62;75.87;100372.84;5035161;28;20470;-69
2023/07/27 11:20:23;;;;;;;5.60;1.70;;;;;;;20.59;76.12;100372.81;5035005;28;20969;-71
2023/07/27 11:22:52;;;;;;;5.00;1.53;;;;;;;20.49;76.06;100366.00;5035365;28;20923;-69
2023/07/27 11:25:19;;;;;;;5.20;1.40;;;;;;;20.36;77.17;100362.69;5034840;28;20498;-69